Time;durP1;ratioP1;P1;durP2;ratioP2;P2;SDS_P1;SDS_P2;PMS_P1;PMS_P2;Temp;Humidity;BMP_temperature;BMP_pressure;BME280_temperature;BME280_humidity;BME280_pressure;Samples;Min_cycle;Max_cycle;Signal;HPM_P1;HPM_P2
2022/10/19 03:01:57;;;;;;;6.13;3.80;;;17.10;87.10;;;;;;5493105;23;20501;-73
2022/10/19 03:04:23;;;;;;;3.40;3.10;;;17.20;87.30;;;;;;4995658;28;20453;-73
2022/10/19 03:06:50;;;;;;;13.70;6.87;;;17.20;87.30;;;;;;4995654;28;20456;-72
2022/10/19 03:09:17;;;;;;;7.07;4.30;;;17.20;87.40;;;;;;4995164;28;20835;-72
2022/10/19 03:11:43;;;;;;;9.40;4.37;;;17.20;87.40;;;;;;4995419;28;20472;-72
2022/10/19 03:14:19;;;;;;;4.70;2.47;;;17.30;87.20;;;;;;4996615;28;20799;-72
2022/10/19 03:16:46;;;;;;;9.23;4.50;;;17.30;87.30;;;;;;4995125;28;20932;-73
2022/10/19 03:19:14;;;;;;;4.23;3.83;;;17.30;87.20;;;;;;4995377;28;20452;-72
2022/10/19 03:21:40;;;;;;;6.87;4.00;;;17.30;87.20;;;;;;4994947;28;20465;-73
2022/10/19 03:24:07;;;;;;;13.80;7.17;;;17.20;87.60;;;;;;4994986;28;20481;-72
2022/10/19 03:26:34;;;;;;;21.07;6.87;;;17.20;87.70;;;;;;4994891;28;20945;-72
2022/10/19 03:29:00;;;;;;;6.10;4.10;;;17.20;87.90;;;;;;4995070;28;20555;-72
2022/10/19 03:31:27;;;;;;;14.77;5.90;;;17.20;87.80;;;;;;4995092;28;20466;-73
2022/10/19 03:33:54;;;;;;;18.23;9.93;;;17.10;88.20;;;;;;4994762;28;20830;-72
2022/10/19 03:36:24;;;;;;;12.00;5.73;;;17.10;88.30;;;;;;4995092;28;20532;-72
2022/10/19 03:38:51;;;;;;;5.63;4.10;;;17.10;88.40;;;;;;4994966;28;20453;-72
2022/10/19 03:41:18;;;;;;;3.63;3.30;;;17.10;88.40;;;;;;4994809;28;20511;-72
2022/10/19 03:43:45;;;;;;;12.63;6.40;;;17.20;88.40;;;;;;4994921;28;20453;-72
2022/10/19 03:46:11;;;;;;;11.73;5.80;;;17.20;88.40;;;;;;4994813;28;20499;-72
2022/10/19 03:48:38;;;;;;;8.93;6.63;;;17.20;88.40;;;;;;4994712;28;20489;-72
2022/10/19 03:51:07;;;;;;;14.90;7.50;;;17.20;88.40;;;;;;4994734;28;20481;-73
2022/10/19 03:53:36;;;;;;;8.67;5.47;;;17.30;88.40;;;;;;4994921;28;20453;-72
2022/10/19 03:56:04;;;;;;;21.80;9.23;;;17.30;88.40;;;;;;4994777;28;20450;-72
2022/10/19 03:58:33;;;;;;;32.80;10.97;;;17.30;88.30;;;;;;4994785;28;20456;-73
2022/10/19 04:01:00;;;;;;;27.60;12.43;;;17.20;88.30;;;;;;4994611;28;20477;-72
2022/10/19 04:03:27;;;;;;;7.70;6.27;;;17.20;88.40;;;;;;4994001;28;20452;-72
2022/10/19 04:06:00;;;;;;;17.10;7.90;;;17.20;88.50;;;;;;4994498;28;20453;-72
2022/10/19 04:08:27;;;;;;;14.17;5.80;;;17.20;88.50;;;;;;4994409;28;20480;-71
2022/10/19 04:10:59;;;;;;;12.20;6.30;;;17.20;88.70;;;;;;4994334;28;20468;-73
2022/10/19 04:14:19;;;;;;;6.03;3.73;;;17.30;88.70;;;;;;4994421;28;20433;-72
2022/10/19 04:16:46;;;;;;;5.00;3.40;;;17.30;88.50;;;;;;4975173;28;20542;-72
2022/10/19 04:19:15;;;;;;;3.00;2.83;;;17.40;88.50;;;;;;4994290;28;20445;-72
2022/10/19 04:21:43;;;;;;;3.90;2.87;;;17.40;88.50;;;;;;4994209;28;20504;-72
2022/10/19 04:24:12;;;;;;;2.07;1.97;;;17.40;88.40;;;;;;4994239;28;20461;-72
2022/10/19 04:26:42;;;;;;;2.10;2.00;;;17.50;88.30;;;;;;4994175;28;20477;-72
2022/10/19 04:29:10;;;;;;;1.90;1.83;;;17.50;88.10;;;;;;4994054;28;20485;-71
2022/10/19 04:31:37;;;;;;;2.40;2.30;;;17.50;88.10;;;;;;4994075;28;20473;-72
2022/10/19 04:34:04;;;;;;;2.00;1.90;;;17.50;88.00;;;;;;4994038;28;20860;-72
2022/10/19 04:36:31;;;;;;;2.20;2.10;;;17.40;88.00;;;;;;4994039;28;20442;-71
2022/10/19 04:38:58;;;;;;;2.40;2.30;;;17.40;88.00;;;;;;4994037;28;20449;-72
2022/10/19 04:41:25;;;;;;;2.43;2.33;;;17.50;88.00;;;;;;4993916;28;20808;-71
2022/10/19 04:43:57;;;;;;;2.40;2.30;;;17.40;87.80;;;;;;4994008;28;20508;-73
2022/10/19 04:46:24;;;;;;;2.27;2.17;;;17.30;87.90;;;;;;4994026;28;20429;-72
2022/10/19 04:48:56;;;;;;;3.43;3.23;;;17.10;88.40;;;;;;4993868;28;20484;-73
2022/10/19 04:51:23;;;;;;;2.73;2.63;;;17.20;88.40;;;;;;4994012;28;20527;-73
2022/10/19 04:53:50;;;;;;;4.20;3.10;;;17.30;88.20;;;;;;4993959;28;20466;-72
2022/10/19 04:56:20;;;;;;;2.90;2.80;;;17.30;88.00;;;;;;4993896;28;20455;-73
2022/10/19 04:58:47;;;;;;;3.00;2.90;;;17.40;87.90;;;;;;4993886;28;20442;-73
2022/10/19 05:01:17;;;;;;;2.80;2.70;;;17.40;87.90;;;;;;4993675;28;20484;-73
2022/10/19 05:03:45;;;;;;;4.20;3.50;;;17.40;87.90;;;;;;4994397;28;20433;-72
2022/10/19 05:06:13;;;;;;;2.47;2.37;;;17.40;87.90;;;;;;4993750;28;20477;-75
2022/10/19 05:08:40;;;;;;;3.73;3.43;;;17.30;88.20;;;;;;4993394;28;20489;-74
2022/10/19 05:11:09;;;;;;;3.30;2.93;;;17.40;88.00;;;;;;4993732;28;20524;-74
2022/10/19 05:13:36;;;;;;;9.53;4.00;;;17.40;87.80;;;;;;4995304;28;20869;-74
2022/10/19 05:16:04;;;;;;;10.17;4.13;;;17.00;88.70;;;;;;4997603;28;20452;-74
2022/10/19 05:18:34;;;;;;;4.80;3.40;;;16.80;89.80;;;;;;4997592;28;20445;-74
2022/10/19 05:21:02;;;;;;;3.70;2.83;;;16.70;90.50;;;;;;4997148;28;20895;-74
2022/10/19 05:23:29;;;;;;;3.90;3.33;;;16.90;90.20;;;;;;4997499;28;20503;-74
2022/10/19 05:26:00;;;;;;;4.30;2.90;;;16.90;89.80;;;;;;4997453;28;20449;-74
2022/10/19 05:28:27;;;;;;;3.50;3.30;;;16.90;89.80;;;;;;4997337;28;20528;-74
2022/10/19 05:30:54;;;;;;;9.43;4.50;;;17.00;89.70;;;;;;4996986;28;20824;-74
2022/10/19 05:33:21;;;;;;;3.30;3.07;;;17.00;89.40;;;;;;4997483;28;20454;-74
2022/10/19 05:35:49;;;;;;;6.13;5.47;;;17.10;89.30;;;;;;4997335;28;20499;-73
2022/10/19 05:38:15;;;;;;;2.93;2.83;;;17.10;89.30;;;;;;4996915;28;20445;-73
2022/10/19 05:40:45;;;;;;;8.93;4.43;;;17.10;89.10;;;;;;4997417;28;20817;-73
2022/10/19 05:43:11;;;;;;;8.30;4.73;;;17.20;88.90;;;;;;4997076;28;20445;-73
2022/10/19 05:45:38;;;;;;;7.60;4.57;;;17.00;88.80;;;;;;4997124;28;20454;-73
2022/10/19 05:48:05;;;;;;;3.67;3.37;;;16.80;89.50;;;;;;4996940;28;20456;-73
2022/10/19 05:50:32;;;;;;;6.13;3.77;;;16.70;90.20;;;;;;4996939;28;20853;-74
2022/10/19 05:53:00;;;;;;;5.27;4.70;;;16.70;90.00;;;;;;4997198;28;20457;-74
2022/10/19 05:55:27;;;;;;;3.80;3.50;;;16.60;90.60;;;;;;4997198;28;20452;-75
2022/10/19 05:57:53;;;;;;;7.93;5.60;;;16.50;90.70;;;;;;4996861;28;20453;-74
2022/10/19 06:00:20;;;;;;;5.00;4.20;;;16.40;91.10;;;;;;4996775;28;20450;-74
2022/10/19 06:02:47;;;;;;;8.97;5.77;;;16.50;91.20;;;;;;4996379;28;20485;-74
2022/10/19 06:05:14;;;;;;;14.27;7.00;;;16.60;90.60;;;;;;4996699;28;20504;-74
2022/10/19 06:07:40;;;;;;;4.73;4.23;;;16.50;90.80;;;;;;4996375;28;20503;-74
2022/10/19 06:10:10;;;;;;;5.50;4.30;;;16.50;90.60;;;;;;4996560;28;20511;-75
2022/10/19 06:12:37;;;;;;;4.53;3.50;;;16.30;91.20;;;;;;4997054;28;20886;-75
2022/10/19 06:15:04;;;;;;;6.50;3.60;;;16.40;91.20;;;;;;4996566;28;20452;-75
2022/10/19 06:17:31;;;;;;;6.13;3.27;;;16.40;90.70;;;;;;4996566;28;20545;-75
2022/10/19 06:19:57;;;;;;;2.93;2.60;;;16.50;90.60;;;;;;4996526;28;20508;-75
2022/10/19 06:22:24;;;;;;;2.60;2.50;;;16.30;90.40;;;;;;4996337;28;20527;-75
2022/10/19 06:24:51;;;;;;;2.60;2.40;;;16.30;90.80;;;;;;4995378;28;20515;-74
2022/10/19 06:27:19;;;;;;;3.60;3.17;;;16.30;90.50;;;;;;4996321;28;20453;-74
2022/10/19 06:29:45;;;;;;;7.23;4.37;;;16.10;91.00;;;;;;4996222;28;20477;-74
2022/10/19 06:32:12;;;;;;;9.97;5.10;;;16.00;91.50;;;;;;4996178;28;20504;-74
2022/10/19 06:34:39;;;;;;;7.30;4.27;;;15.90;91.60;;;;;;4996286;28;20631;-75
2022/10/19 06:37:06;;;;;;;11.03;3.10;;;15.80;92.30;;;;;;4996057;28;20449;-74
2022/10/19 06:39:32;;;;;;;3.50;2.77;;;15.90;92.00;;;;;;4996115;28;20442;-74
2022/10/19 06:41:59;;;;;;;4.73;3.63;;;15.90;91.80;;;;;;4996019;28;20469;-75
2022/10/19 06:44:27;;;;;;;3.30;3.00;;;15.90;91.70;;;;;;4995752;28;20800;-75
2022/10/19 06:46:54;;;;;;;2.50;2.30;;;15.90;91.80;;;;;;4996011;28;20445;-74
2022/10/19 06:49:20;;;;;;;2.17;2.07;;;15.80;91.50;;;;;;4995854;28;20485;-75
2022/10/19 06:51:47;;;;;;;2.17;2.00;;;15.90;91.60;;;;;;4995839;28;20473;-75
2022/10/19 06:54:14;;;;;;;2.20;2.10;;;15.90;91.40;;;;;;4995488;28;21002;-74
2022/10/19 06:56:40;;;;;;;2.30;2.10;;;15.90;91.10;;;;;;4995754;28;20453;-74
2022/10/19 06:59:07;;;;;;;3.63;3.13;;;16.00;91.00;;;;;;4995806;28;20449;-72
2022/10/19 07:01:35;;;;;;;2.90;2.63;;;16.00;90.90;;;;;;4995436;28;20477;-74
2022/10/19 07:04:02;;;;;;;2.37;2.27;;;15.90;91.00;;;;;;4995700;28;20445;-74
2022/10/19 07:06:29;;;;;;;3.20;2.27;;;15.90;91.30;;;;;;4995744;28;20492;-74
2022/10/19 07:08:55;;;;;;;2.30;2.20;;;15.80;91.40;;;;;;4995248;28;20481;-75
2022/10/19 07:11:22;;;;;;;2.50;2.40;;;15.70;91.80;;;;;;4995497;28;20469;-75
2022/10/19 07:13:49;;;;;;;2.43;2.33;;;15.60;92.80;;;;;;4995506;28;20449;-74
2022/10/19 07:16:18;;;;;;;2.43;2.33;;;15.60;93.10;;;;;;4995564;28;20453;-74
2022/10/19 07:18:46;;;;;;;2.30;2.20;;;15.50;92.50;;;;;;4995301;28;20457;-74
2022/10/19 07:21:15;;;;;;;1.97;1.87;;;15.50;93.40;;;;;;4995185;28;20469;-75
2022/10/19 07:23:43;;;;;;;1.73;1.70;;;15.50;93.30;;;;;;4995315;28;20445;-75
2022/10/19 07:26:13;;;;;;;2.03;1.93;;;15.40;93.30;;;;;;4995211;28;20449;-75
2022/10/19 07:28:41;;;;;;;2.43;2.33;;;15.40;93.70;;;;;;4995148;28;20453;-75
2022/10/19 07:31:10;;;;;;;2.47;2.37;;;15.30;93.60;;;;;;4995113;28;20473;-74
2022/10/19 07:33:37;;;;;;;2.33;2.23;;;15.10;94.70;;;;;;4995072;28;20452;-74
2022/10/19 07:36:07;;;;;;;2.00;1.90;;;15.40;94.50;;;;;;4994611;28;20971;-74
2022/10/19 07:38:34;;;;;;;2.30;2.20;;;15.40;93.60;;;;;;4995056;28;20472;-75
2022/10/19 07:41:03;;;;;;;1.77;1.67;;;15.30;94.50;;;;;;4994878;28;20469;-74
2022/10/19 07:43:30;;;;;;;2.00;1.90;;;15.30;94.40;;;;;;4995216;28;20445;-74
2022/10/19 07:46:01;;;;;;;1.77;1.67;;;15.30;94.40;;;;;;4994823;28;20450;-74
2022/10/19 07:48:28;;;;;;;2.00;1.90;;;15.20;94.50;;;;;;4994477;28;20945;-75
2022/10/19 07:50:54;;;;;;;1.67;1.57;;;15.30;94.50;;;;;;4994823;28;20485;-74
2022/10/19 07:53:22;;;;;;;2.13;2.03;;;15.40;94.00;;;;;;4994849;28;20452;-75
2022/10/19 07:55:49;;;;;;;1.90;1.80;;;15.60;93.60;;;;;;4994724;28;20453;-75
2022/10/19 07:58:16;;;;;;;1.80;1.70;;;15.60;92.70;;;;;;4994712;28;20471;-74
2022/10/19 08:00:42;;;;;;;2.10;2.00;;;15.60;93.40;;;;;;4994441;28;20523;-74
2022/10/19 08:03:09;;;;;;;1.70;1.60;;;15.70;93.50;;;;;;4994745;28;20441;-74
2022/10/19 08:05:36;;;;;;;2.17;2.07;;;15.70;93.20;;;;;;4994411;28;20489;-74
2022/10/19 08:08:03;;;;;;;2.37;2.27;;;15.80;92.70;;;;;;4994824;28;20456;-74
2022/10/19 08:10:31;;;;;;;2.10;2.00;;;15.80;92.00;;;;;;4994302;28;20888;-74
2022/10/19 08:12:57;;;;;;;2.07;1.97;;;15.60;92.40;;;;;;4994442;28;20481;-74
2022/10/19 08:15:25;;;;;;;1.60;1.50;;;15.60;93.30;;;;;;4994638;28;20454;-74
2022/10/19 08:17:51;;;;;;;2.00;1.90;;;15.40;93.10;;;;;;4994312;28;20484;-75
2022/10/19 08:20:18;;;;;;;2.10;2.00;;;15.60;93.90;;;;;;4994267;28;20441;-74
2022/10/19 08:22:45;;;;;;;1.87;1.77;;;15.70;93.50;;;;;;4993950;28;20991;-75
2022/10/19 08:25:12;;;;;;;2.17;2.07;;;15.90;93.20;;;;;;4994185;28;20512;-75
2022/10/19 08:27:40;;;;;;;2.20;2.10;;;15.90;92.30;;;;;;4994196;28;20453;-74
2022/10/19 08:30:08;;;;;;;1.70;1.60;;;16.00;92.10;;;;;;4994090;28;20855;-74
2022/10/19 08:32:34;;;;;;;1.90;1.80;;;16.00;91.80;;;;;;4993772;28;20465;-74
2022/10/19 08:35:01;;;;;;;1.83;1.73;;;15.90;92.00;;;;;;4994121;28;20500;-75
2022/10/19 08:37:28;;;;;;;2.10;2.00;;;15.90;92.20;;;;;;4995557;28;20480;-75
2022/10/19 08:39:54;;;;;;;1.87;1.77;;;16.10;92.20;;;;;;4994308;28;20445;-75
2022/10/19 08:42:27;;;;;;;1.67;1.63;;;16.10;91.40;;;;;;4993941;28;20465;-74
2022/10/19 08:45:21;;;;;;;1.70;1.60;;;16.20;91.30;;;;;;4994074;28;20448;-74
2022/10/19 08:47:57;;;;;;;1.50;1.40;;;16.10;91.30;;;;;;4993503;28;20441;-74
2022/10/19 08:50:25;;;;;;;1.50;1.50;;;16.20;91.10;;;;;;4993835;28;20469;-75
2022/10/19 08:53:00;;;;;;;1.80;1.70;;;16.20;90.90;;;;;;4993915;28;20462;-74
2022/10/19 08:55:33;;;;;;;1.77;1.67;;;16.00;91.30;;;;;;4993983;28;20528;-74
2022/10/19 08:58:10;;;;;;;1.67;1.67;;;16.00;92.00;;;;;;4993931;28;20425;-74
2022/10/19 09:00:43;;;;;;;1.50;1.40;;;16.10;91.30;;;;;;4993711;28;20902;-74
2022/10/19 09:03:19;;;;;;;1.73;1.63;;;16.20;89.60;;;;;;4993072;28;20426;-74
2022/10/19 09:05:52;;;;;;;1.57;1.57;;;16.10;90.60;;;;;;4993042;28;20425;-74
2022/10/19 09:08:20;;;;;;;1.60;1.57;;;16.00;90.20;;;;;;4992968;28;20460;-74
2022/10/19 09:10:50;;;;;;;1.80;1.70;;;16.00;91.50;;;;;;4992766;28;20540;-75
2022/10/19 09:13:27;;;;;;;1.33;1.33;;;16.00;90.70;;;;;;4994384;28;20453;-74
2022/10/19 09:15:55;;;;;;;1.70;1.60;;;16.10;90.90;;;;;;4992952;28;20432;-74
2022/10/19 09:18:25;;;;;;;1.50;1.47;;;16.00;90.30;;;;;;4992863;28;20453;-74
2022/10/19 09:20:57;;;;;;;1.77;1.67;;;16.00;90.60;;;;;;4993625;28;20461;-75
2022/10/19 09:23:29;;;;;;;1.33;1.33;;;15.90;91.30;;;;;;4992597;28;20421;-74
2022/10/19 09:25:57;;;;;;;1.53;1.53;;;15.90;91.30;;;;;;4992814;28;20449;-74
2022/10/19 09:28:43;;;;;;;1.50;1.40;;;15.90;91.20;;;;;;4992780;28;20476;-74
2022/10/19 09:31:16;;;;;;;1.20;1.20;;;16.00;91.10;;;;;;4992642;28;20512;-75
2022/10/19 09:33:47;;;;;;;1.43;1.43;;;16.00;90.10;;;;;;4992447;28;20430;-74
2022/10/19 09:36:14;;;;;;;1.30;1.20;;;16.00;90.30;;;;;;4992343;28;20905;-75
2022/10/19 09:38:40;;;;;;;1.33;1.33;;;15.80;90.40;;;;;;4992639;28;20457;-74
2022/10/19 09:41:16;;;;;;;1.33;1.23;;;15.70;90.90;;;;;;4992533;28;20502;-74
2022/10/19 09:43:49;;;;;;;1.30;1.30;;;15.50;91.20;;;;;;4992586;28;20441;-75
2022/10/19 09:46:28;;;;;;;1.30;1.20;;;15.70;92.20;;;;;;4992571;28;20497;-74
2022/10/19 09:48:55;;;;;;;1.23;1.10;;;15.90;90.30;;;;;;4992505;28;20488;-74
2022/10/19 09:51:23;;;;;;;1.10;1.10;;;15.70;90.50;;;;;;4992297;28;20493;-75
2022/10/19 09:53:52;;;;;;;1.50;1.40;;;15.70;91.40;;;;;;4992159;28;20453;-75
2022/10/19 09:56:21;;;;;;;1.10;1.10;;;15.70;90.90;;;;;;4992451;28;20859;-75
2022/10/19 09:58:50;;;;;;;1.10;1.10;;;15.80;91.00;;;;;;4992394;28;20446;-75
2022/10/19 10:01:35;;;;;;;0.97;0.97;;;15.80;90.90;;;;;;4990889;28;102015;-75
2022/10/19 10:04:06;;;;;;;1.00;1.00;;;16.00;90.50;;;;;;4996126;28;20811;-75
2022/10/19 10:06:34;;;;;;;1.20;1.20;;;16.00;90.20;;;;;;4996711;28;20445;-75
2022/10/19 10:09:02;;;;;;;0.90;0.90;;;15.90;90.10;;;;;;4996626;28;20437;-75
2022/10/19 10:11:32;;;;;;;1.40;1.30;;;15.90;90.30;;;;;;4996180;28;20491;-75
2022/10/19 10:14:05;;;;;;;1.20;1.20;;;16.10;90.10;;;;;;4996566;28;20457;-74
2022/10/19 10:16:35;;;;;;;1.30;1.30;;;16.10;89.70;;;;;;4996610;28;20504;-75
2022/10/19 10:19:06;;;;;;;1.30;1.20;;;16.10;89.50;;;;;;4996458;28;20457;-75
2022/10/19 10:21:35;;;;;;;1.50;1.50;;;16.10;89.90;;;;;;4996440;28;20504;-75
2022/10/19 10:24:05;;;;;;;1.10;1.10;;;16.00;90.10;;;;;;4996379;28;20492;-75
2022/10/19 10:26:37;;;;;;;1.33;1.33;;;16.00;90.10;;;;;;4996704;28;20931;-75
2022/10/19 10:29:17;;;;;;;1.43;1.43;;;15.80;90.60;;;;;;4996106;28;20935;-75
2022/10/19 10:31:47;;;;;;;1.10;1.10;;;15.80;91.30;;;;;;4995937;28;20888;-75
2022/10/19 10:34:18;;;;;;;1.10;1.10;;;16.00;91.00;;;;;;4996282;28;20437;-75
2022/10/19 10:36:50;;;;;;;0.90;0.90;;;16.10;90.10;;;;;;4996325;28;20438;-75
2022/10/19 10:39:17;;;;;;;0.80;0.80;;;16.10;89.50;;;;;;4995954;28;20787;-75
2022/10/19 10:41:46;;;;;;;0.80;0.80;;;16.00;88.70;;;;;;4996174;28;20473;-75
2022/10/19 10:44:20;;;;;;;0.70;0.70;;;16.20;88.60;;;;;;4995776;28;20982;-75
2022/10/19 10:46:53;;;;;;;1.57;1.07;;;16.20;88.80;;;;;;4996129;28;20437;-74
2022/10/19 10:49:24;;;;;;;0.80;0.80;;;16.10;88.50;;;;;;4996046;28;20453;-75
2022/10/19 10:51:54;;;;;;;0.70;0.70;;;15.90;88.50;;;;;;4995514;28;20485;-74
2022/10/19 10:54:22;;;;;;;1.77;0.63;;;15.80;89.40;;;;;;4995879;28;20522;-74
2022/10/19 10:57:12;;;;;;;0.80;0.80;;;16.00;89.40;;;;;;4995464;28;20845;-74
2022/10/19 10:59:46;;;;;;;0.70;0.70;;;16.10;89.00;;;;;;4995500;28;20842;-75
2022/10/19 11:02:29;;;;;;;0.70;0.70;;;16.00;88.60;;;;;;4995522;28;20476;-74
2022/10/19 11:05:00;;;;;;;0.80;0.80;;;16.10;88.30;;;;;;4996397;28;20437;-73
2022/10/19 11:07:30;;;;;;;0.70;0.70;;;16.10;88.20;;;;;;4995893;28;20417;-74
2022/10/19 11:09:59;;;;;;;0.70;0.70;;;16.20;88.40;;;;;;4995776;28;20949;-72
2022/10/19 11:12:34;;;;;;;0.70;0.70;;;16.20;88.00;;;;;;4995164;28;20466;-75
2022/10/19 11:15:06;;;;;;;0.70;0.70;;;16.00;88.70;;;;;;4995795;28;20433;-75
2022/10/19 11:17:40;;;;;;;1.70;0.70;;;16.00;89.20;;;;;;4995801;28;20418;-75
2022/10/19 11:20:13;;;;;;;0.70;0.70;;;16.10;89.10;;;;;;4995750;28;20449;-75
2022/10/19 11:22:48;;;;;;;0.70;0.70;;;16.00;89.40;;;;;;4996232;28;20453;-75
2022/10/19 11:25:27;;;;;;;0.80;0.80;;;16.10;89.60;;;;;;4996392;28;20453;-75
2022/10/19 11:28:06;;;;;;;1.10;0.77;;;16.30;89.30;;;;;;4995303;28;20906;-73
2022/10/19 11:30:40;;;;;;;0.70;0.70;;;16.30;89.30;;;;;;4995687;28;20476;-76
2022/10/19 11:33:18;;;;;;;0.90;0.90;;;16.40;88.50;;;;;;4995862;28;20996;-74
2022/10/19 11:35:51;;;;;;;0.80;0.80;;;16.30;88.20;;;;;;4996226;28;20433;-75
2022/10/19 11:38:35;;;;;;;1.10;1.00;;;16.40;88.70;;;;;;4995747;28;20507;-75
2022/10/19 11:41:21;;;;;;;0.90;0.90;;;16.50;88.30;;;;;;4995731;28;20469;-75
2022/10/19 11:44:04;;;;;;;0.90;0.90;;;16.50;87.30;;;;;;4996782;28;20449;-75
2022/10/19 11:46:38;;;;;;;0.90;0.90;;;16.50;87.70;;;;;;4996068;28;20459;-75
2022/10/19 11:49:29;;;;;;;0.90;0.90;;;16.50;88.00;;;;;;4995100;28;20441;-75
2022/10/19 11:52:05;;;;;;;0.80;0.80;;;16.50;88.10;;;;;;4995068;28;20496;-74
2022/10/19 11:54:44;;;;;;;0.90;0.90;;;16.60;87.90;;;;;;4995210;28;20849;-75
2022/10/19 11:57:16;;;;;;;1.00;1.00;;;16.60;87.40;;;;;;4994630;28;20436;-74
2022/10/19 11:59:59;;;;;;;0.80;0.80;;;16.70;87.70;;;;;;4994967;28;20433;-75
2022/10/19 12:02:51;;;;;;;0.83;0.83;;;16.80;87.30;;;;;;4994381;28;20503;-75
2022/10/19 12:05:25;;;;;;;1.17;0.90;;;16.80;86.90;;;;;;4994846;28;20457;-74
2022/10/19 12:08:06;;;;;;;0.80;0.80;;;16.90;86.90;;;;;;4995295;28;20561;-75
2022/10/19 12:10:40;;;;;;;0.90;0.90;;;16.80;86.60;;;;;;4994889;28;20502;-75
2022/10/19 12:13:13;;;;;;;0.87;0.87;;;16.80;87.00;;;;;;4994827;28;20433;-74
2022/10/19 12:15:44;;;;;;;0.73;0.73;;;16.90;87.00;;;;;;4995562;28;20434;-74
2022/10/19 12:18:16;;;;;;;0.90;0.90;;;16.90;86.40;;;;;;4994512;28;20460;-76
2022/10/19 12:20:48;;;;;;;0.90;0.90;;;16.80;86.40;;;;;;4995219;28;20433;-75
2022/10/19 12:23:24;;;;;;;0.70;0.70;;;16.80;86.70;;;;;;4993632;28;20533;-74
2022/10/19 12:25:52;;;;;;;0.80;0.80;;;16.90;86.30;;;;;;4994653;28;20459;-74
2022/10/19 12:28:24;;;;;;;0.90;0.90;;;16.90;86.40;;;;;;4995019;28;20451;-74
2022/10/19 12:30:52;;;;;;;0.90;0.90;;;16.80;86.00;;;;;;4993801;28;20489;-74
2022/10/19 12:33:23;;;;;;;1.00;1.00;;;16.80;86.30;;;;;;4993946;28;20442;-74
2022/10/19 12:36:08;;;;;;;1.10;1.10;;;16.90;85.70;;;;;;4994799;28;20446;-74
2022/10/19 12:38:47;;;;;;;0.90;0.90;;;16.90;85.70;;;;;;4994649;28;20417;-75
2022/10/19 12:41:23;;;;;;;0.87;0.87;;;17.00;86.00;;;;;;4994084;28;20469;-75
2022/10/19 12:44:01;;;;;;;0.80;0.80;;;17.10;85.40;;;;;;4993866;28;20793;-74
2022/10/19 12:46:36;;;;;;;1.00;1.00;;;17.00;86.00;;;;;;4994168;28;20433;-74
2022/10/19 12:49:37;;;;;;;1.00;0.90;;;17.00;86.00;;;;;;4993956;28;20437;-74
2022/10/19 12:52:07;;;;;;;1.23;1.13;;;17.00;86.10;;;;;;4991770;28;20493;-75
2022/10/19 12:54:37;;;;;;;0.90;0.90;;;17.10;86.00;;;;;;4994580;28;20459;-75
2022/10/19 12:57:20;;;;;;;0.90;0.90;;;17.00;84.80;;;;;;4994495;28;20437;-75
2022/10/19 12:59:57;;;;;;;0.80;0.80;;;17.00;84.20;;;;;;4994410;28;20437;-75
2022/10/19 13:02:27;;;;;;;0.80;0.80;;;17.10;84.20;;;;;;4993903;28;20832;-75
2022/10/19 13:04:54;;;;;;;0.90;0.90;;;17.20;83.80;;;;;;4995202;28;20829;-73
2022/10/19 13:07:26;;;;;;;0.70;0.70;;;17.20;83.20;;;;;;4993540;28;20453;-74
2022/10/19 13:10:01;;;;;;;0.90;0.90;;;17.00;84.10;;;;;;4993602;28;20437;-75
2022/10/19 13:12:43;;;;;;;0.90;0.90;;;16.90;84.20;;;;;;4994080;28;20504;-74
2022/10/19 13:15:55;;;;;;;1.23;1.03;;;16.80;84.60;;;;;;4994053;28;20434;-74
2022/10/19 13:19:07;;;;;;;0.90;0.90;;;16.80;85.20;;;;;;4994628;28;20425;-75
2022/10/19 13:22:25;;;;;;;1.00;1.00;;;16.70;85.30;;;;;;4968057;28;20890;-74
2022/10/19 13:25:27;;;;;;;0.90;0.90;;;16.70;85.60;;;;;;4962439;28;20453;-75
2022/10/19 13:28:01;;;;;;;0.90;0.90;;;16.90;85.00;;;;;;4915330;29;20445;-73
2022/10/19 13:31:02;;;;;;;0.90;0.90;;;16.90;85.30;;;;;;4981733;28;20900;-74
2022/10/19 13:33:44;;;;;;;0.80;0.80;;;17.00;85.00;;;;;;4993811;28;20528;-74
2022/10/19 13:36:12;;;;;;;0.87;0.87;;;17.00;84.60;;;;;;4998012;28;20433;-75
2022/10/19 13:38:40;;;;;;;0.80;0.80;;;17.10;84.70;;;;;;4997414;28;20453;-75
2022/10/19 13:41:14;;;;;;;0.90;0.90;;;17.10;84.20;;;;;;4998012;28;20471;-74
2022/10/19 13:43:52;;;;;;;0.90;0.90;;;17.00;85.00;;;;;;4998197;28;20468;-74
2022/10/19 13:46:25;;;;;;;0.90;0.90;;;17.00;85.40;;;;;;4997902;28;20508;-75
2022/10/19 13:49:18;;;;;;;0.97;0.97;;;17.10;85.50;;;;;;4997035;28;20930;-75
2022/10/19 13:51:57;;;;;;;0.87;0.87;;;17.20;85.00;;;;;;4996989;28;20491;-76
2022/10/19 13:54:42;;;;;;;1.57;1.00;;;17.10;85.50;;;;;;4997244;28;20444;-74
2022/10/19 13:57:22;;;;;;;0.90;0.90;;;17.10;85.10;;;;;;4996635;28;20927;-75
2022/10/19 14:00:12;;;;;;;0.90;0.90;;;17.00;84.70;;;;;;4996897;28;20437;-75
2022/10/19 14:03:00;;;;;;;0.80;0.80;;;17.00;85.20;;;;;;4996432;28;21011;-75
2022/10/19 14:05:52;;;;;;;0.90;0.90;;;17.10;84.90;;;;;;4996654;28;20805;-75
2022/10/19 14:08:39;;;;;;;1.00;1.00;;;17.20;84.60;;;;;;4996839;28;20448;-75
2022/10/19 14:11:14;;;;;;;0.83;0.80;;;17.20;84.30;;;;;;4996525;28;20497;-73
2022/10/19 14:13:42;;;;;;;0.80;0.80;;;17.10;84.30;;;;;;4996736;28;20460;-74
2022/10/19 14:16:18;;;;;;;1.10;1.10;;;17.30;84.30;;;;;;4996571;28;20456;-74
2022/10/19 14:18:52;;;;;;;0.83;0.83;;;17.10;84.30;;;;;;4996573;28;20505;-73
2022/10/19 14:21:29;;;;;;;0.90;0.90;;;17.10;84.40;;;;;;4996469;28;20470;-74
2022/10/19 14:23:56;;;;;;;0.80;0.80;;;17.10;84.50;;;;;;4996173;28;20845;-74
2022/10/19 14:26:25;;;;;;;0.90;0.90;;;16.90;84.50;;;;;;4996333;28;20522;-75
2022/10/19 14:28:55;;;;;;;1.00;1.00;;;16.80;84.40;;;;;;4996363;28;20450;-76
2022/10/19 14:31:27;;;;;;;0.90;0.90;;;16.70;85.10;;;;;;4995933;28;20987;-76
2022/10/19 14:34:00;;;;;;;0.90;0.90;;;16.80;84.70;;;;;;4996272;28;20433;-76
2022/10/19 14:36:33;;;;;;;0.93;0.93;;;17.00;84.60;;;;;;4995932;28;20841;-76
2022/10/19 14:38:59;;;;;;;0.90;0.90;;;17.00;84.10;;;;;;4995941;28;20909;-75
2022/10/19 14:41:30;;;;;;;0.80;0.80;;;16.90;84.60;;;;;;4996088;28;20488;-76
2022/10/19 14:44:01;;;;;;;0.70;0.70;;;16.70;84.70;;;;;;4996106;28;20442;-75
2022/10/19 14:46:29;;;;;;;0.80;0.80;;;16.50;85.00;;;;;;4995208;28;20528;-73
2022/10/19 14:49:00;;;;;;;0.80;0.80;;;16.50;84.80;;;;;;4995973;28;20449;-75
2022/10/19 14:51:34;;;;;;;1.33;0.80;;;16.50;84.50;;;;;;4995602;28;20517;-76
2022/10/19 14:54:06;;;;;;;0.80;0.80;;;16.50;84.60;;;;;;4995933;28;20430;-75
2022/10/19 14:56:36;;;;;;;0.70;0.70;;;16.50;84.20;;;;;;4995824;28;20828;-76
2022/10/19 14:59:11;;;;;;;0.70;0.70;;;16.60;84.40;;;;;;4995855;28;20449;-76
2022/10/19 15:01:38;;;;;;;0.80;0.80;;;16.60;84.90;;;;;;4995455;28;21019;-76
2022/10/19 15:04:05;;;;;;;0.70;0.70;;;16.80;84.30;;;;;;4995854;28;20454;-75
2022/10/19 15:06:34;;;;;;;0.73;0.73;;;16.80;83.40;;;;;;4995687;28;20461;-75
2022/10/19 15:09:03;;;;;;;0.90;0.90;;;16.90;83.40;;;;;;4995638;28;20468;-76
2022/10/19 15:11:32;;;;;;;0.83;0.83;;;16.80;83.90;;;;;;4995130;28;20984;-76
2022/10/19 15:14:02;;;;;;;0.77;0.77;;;16.90;83.60;;;;;;4997049;28;20457;-76
2022/10/19 15:16:43;;;;;;;0.90;0.90;;;17.10;82.90;;;;;;4995216;28;20964;-76
2022/10/19 15:19:19;;;;;;;0.80;0.80;;;17.10;82.80;;;;;;4995479;28;20433;-75
2022/10/19 15:21:46;;;;;;;0.80;0.80;;;17.10;82.80;;;;;;4995482;28;20472;-75
2022/10/19 15:24:30;;;;;;;0.80;0.80;;;17.00;83.30;;;;;;4995204;28;20504;-75
2022/10/19 15:26:57;;;;;;;0.87;0.87;;;17.00;83.10;;;;;;4994997;28;20826;-75
2022/10/19 15:29:29;;;;;;;1.00;1.00;;;17.20;82.90;;;;;;4995428;28;20466;-75
2022/10/19 15:32:13;;;;;;;0.90;0.90;;;17.00;82.50;;;;;;4995621;28;20492;-75
2022/10/19 15:34:43;;;;;;;0.80;0.80;;;16.90;83.10;;;;;;4995172;28;20529;-75
2022/10/19 15:37:18;;;;;;;0.80;0.80;;;16.90;82.70;;;;;;4994874;28;20910;-75
2022/10/19 15:39:45;;;;;;;0.80;0.80;;;17.00;82.90;;;;;;4995126;28;20444;-76
2022/10/19 15:42:35;;;;;;;0.90;0.90;;;17.10;82.50;;;;;;4994905;28;20461;-75
2022/10/19 15:45:03;;;;;;;1.00;1.00;;;17.00;82.80;;;;;;4994961;28;20500;-75
2022/10/19 15:47:31;;;;;;;0.80;0.80;;;16.90;83.20;;;;;;4994521;28;20814;-75
2022/10/19 15:49:59;;;;;;;0.90;0.90;;;17.10;83.10;;;;;;4994842;28;20457;-75
2022/10/19 15:52:28;;;;;;;1.00;0.90;;;17.10;82.70;;;;;;4994629;28;20520;-75
2022/10/19 15:54:56;;;;;;;1.20;0.90;;;17.00;83.10;;;;;;4994710;28;20500;-75
2022/10/19 15:57:29;;;;;;;0.80;0.80;;;17.10;83.10;;;;;;4994626;28;20453;-76
2022/10/19 15:59:58;;;;;;;0.90;0.90;;;17.30;82.20;;;;;;4994416;28;20902;-76
2022/10/19 16:02:25;;;;;;;0.80;0.80;;;17.50;82.00;;;;;;4994173;28;20993;-76
2022/10/19 16:04:53;;;;;;;0.80;0.80;;;17.70;81.40;;;;;;4994674;28;20453;-75
2022/10/19 16:07:25;;;;;;;1.00;1.00;;;17.70;81.30;;;;;;4994313;28;20529;-76
2022/10/19 16:09:53;;;;;;;0.70;0.70;;;17.80;80.70;;;;;;4994246;28;20909;-76